Time;durP1;ratioP1;P1;durP2;ratioP2;P2;SDS_P1;SDS_P2;PMS_P1;PMS_P2;Temp;Humidity;BMP_temperature;BMP_pressure;BME280_temperature;BME280_humidity;BME280_pressure;Samples;Min_cycle;Max_cycle;Signal;HPM_P1;HPM_P2
2023/12/14 00:01:40;;;;;;;11.10;6.17;;;8.50;1.00;;;;;;4987055;28;20218;-74
2023/12/14 00:04:05;;;;;;;8.90;5.90;;;8.50;1.00;;;;;;4989037;28;20225;-74
2023/12/14 00:06:31;;;;;;;9.60;5.93;;;8.50;1.00;;;;;;4987446;28;20479;-73
2023/12/14 00:08:56;;;;;;;12.97;6.30;;;8.50;1.00;;;;;;4991300;28;20191;-75
2023/12/14 00:11:22;;;;;;;11.97;6.13;;;8.50;1.00;;;;;;4985630;28;20206;-74
2023/12/14 00:13:47;;;;;;;14.70;6.57;;;8.50;1.00;;;;;;4990580;28;20191;-74
2023/12/14 00:16:13;;;;;;;10.97;5.90;;;8.60;1.00;;;;;;4991395;28;20187;-75
2023/12/14 00:18:38;;;;;;;10.77;5.87;;;8.60;1.00;;;;;;4990516;28;20187;-75
2023/12/14 00:21:05;;;;;;;10.17;5.80;;;8.70;1.00;;;;;;4985019;28;20206;-74
2023/12/14 00:23:30;;;;;;;8.60;5.27;;;8.70;1.00;;;;;;4991681;28;20187;-74
2023/12/14 00:25:56;;;;;;;8.80;5.37;;;8.80;1.00;;;;;;4988169;28;20430;-74
2023/12/14 00:28:22;;;;;;;10.27;5.90;;;8.70;1.00;;;;;;4991345;28;20262;-75
2023/12/14 00:30:48;;;;;;;17.30;6.47;;;8.80;1.00;;;;;;4990351;28;20203;-74
2023/12/14 00:33:13;;;;;;;9.60;5.93;;;8.80;1.00;;;;;;4991220;28;20979;-74
2023/12/14 00:35:39;;;;;;;9.40;5.37;;;8.80;1.00;;;;;;4991478;28;20289;-74
2023/12/14 00:38:04;;;;;;;9.27;5.73;;;8.70;1.00;;;;;;4989761;28;20574;-74
2023/12/14 00:40:30;;;;;;;7.23;5.00;;;8.70;1.00;;;;;;4988680;28;20217;-74
2023/12/14 00:42:55;;;;;;;9.43;5.13;;;8.70;1.00;;;;;;4987221;28;20210;-74
2023/12/14 00:45:21;;;;;;;9.77;5.40;;;8.70;1.00;;;;;;4978106;28;20194;-73
2023/12/14 00:47:46;;;;;;;7.50;5.50;;;8.70;1.00;;;;;;4989268;28;20578;-74
2023/12/14 00:50:12;;;;;;;10.83;6.13;;;8.60;1.00;;;;;;4988759;28;20211;-75
2023/12/14 00:52:37;;;;;;;11.70;6.00;;;8.60;1.00;;;;;;4986133;28;20199;-73
2023/12/14 00:55:03;;;;;;;9.43;5.53;;;8.60;1.00;;;;;;4990230;28;20211;-75
2023/12/14 00:57:29;;;;;;;15.50;7.20;;;8.50;1.00;;;;;;4991000;28;20446;-74
2023/12/14 00:59:55;;;;;;;14.23;7.70;;;8.50;1.00;;;;;;4989050;28;20931;-76
2023/12/14 01:02:20;;;;;;;13.03;7.07;;;8.50;1.00;;;;;;4986845;28;20647;-75
2023/12/14 01:04:46;;;;;;;15.37;7.40;;;8.50;1.00;;;;;;4988992;28;20190;-75
2023/12/14 01:07:11;;;;;;;17.23;8.87;;;8.50;1.00;;;;;;4990735;28;20183;-75
2023/12/14 01:09:37;;;;;;;19.53;8.27;;;8.50;1.00;;;;;;4990526;28;22069;-76
2023/12/14 01:12:03;;;;;;;14.80;6.87;;;8.50;1.00;;;;;;4984924;28;20195;-73
2023/12/14 01:14:28;;;;;;;21.33;8.80;;;8.50;1.00;;;;;;4991061;28;20278;-75
2023/12/14 01:16:54;;;;;;;13.63;6.17;;;8.50;1.00;;;;;;4990619;28;20554;-75
2023/12/14 01:19:19;;;;;;;11.00;5.97;;;8.60;1.00;;;;;;4988927;28;20186;-76
2023/12/14 01:21:45;;;;;;;13.03;6.53;;;8.50;1.00;;;;;;4980400;28;20247;-74
2023/12/14 01:24:10;;;;;;;9.60;5.70;;;8.60;1.00;;;;;;4990565;28;20194;-73
2023/12/14 01:26:36;;;;;;;9.43;5.87;;;8.60;1.00;;;;;;4988053;28;20195;-74
2023/12/14 01:29:02;;;;;;;12.83;6.50;;;8.60;1.00;;;;;;4984683;28;20473;-73
2023/12/14 01:31:27;;;;;;;23.37;9.90;;;8.60;1.00;;;;;;4988634;28;20620;-75
2023/12/14 01:33:52;;;;;;;29.87;12.97;;;8.40;1.00;;;;;;4984083;28;20187;-75
2023/12/14 01:36:22;;;;;;;29.03;13.40;;;8.60;1.00;;;;;;4984951;28;20194;-75
2023/12/14 01:38:48;;;;;;;21.73;9.60;;;8.60;1.00;;;;;;4989437;28;20677;-75
2023/12/14 01:41:13;;;;;;;10.80;6.33;;;8.60;1.00;;;;;;4983741;28;20462;-75
2023/12/14 01:43:39;;;;;;;12.20;7.23;;;8.50;1.00;;;;;;4978308;28;20684;-74
2023/12/14 01:46:04;;;;;;;11.10;6.23;;;8.50;1.00;;;;;;4991494;28;20558;-75
2023/12/14 01:48:30;;;;;;;24.20;10.43;;;8.50;1.00;;;;;;4988722;28;20198;-74
2023/12/14 01:50:55;;;;;;;35.30;13.13;;;8.50;1.00;;;;;;4988448;28;20207;-75
2023/12/14 01:53:21;;;;;;;47.80;19.10;;;8.50;1.00;;;;;;4983099;28;20206;-78
2023/12/14 01:55:47;;;;;;;28.60;11.47;;;8.50;1.00;;;;;;4988984;28;20226;-75
2023/12/14 01:58:12;;;;;;;31.60;12.20;;;8.40;1.00;;;;;;4982424;28;20198;-75
2023/12/14 02:00:51;;;;;;;11.43;6.50;;;8.50;1.00;;;;;;4989381;28;20219;-75
2023/12/14 02:03:17;;;;;;;8.90;5.23;;;8.50;1.00;;;;;;4988386;28;20261;-75
2023/12/14 02:05:43;;;;;;;31.90;13.30;;;8.50;1.00;;;;;;4986752;28;20917;-76
2023/12/14 02:08:08;;;;;;;26.77;10.70;;;8.50;1.00;;;;;;4988191;28;20222;-74
2023/12/14 02:10:34;;;;;;;13.87;7.30;;;8.60;1.00;;;;;;4988104;28;20214;-77
2023/12/14 02:13:04;;;;;;;15.03;8.27;;;8.60;1.00;;;;;;4989436;28;20203;-75
2023/12/14 02:15:30;;;;;;;20.30;9.37;;;8.60;1.00;;;;;;4989355;28;20211;-75
2023/12/14 02:17:55;;;;;;;33.43;12.37;;;8.60;1.00;;;;;;4989807;28;20462;-75
2023/12/14 02:20:21;;;;;;;45.47;16.40;;;8.60;1.00;;;;;;4988656;28;20253;-74
2023/12/14 02:22:56;;;;;;;30.57;12.77;;;8.60;1.00;;;;;;4989074;28;20634;-76
2023/12/14 02:25:23;;;;;;;18.30;9.00;;;8.60;1.00;;;;;;4988242;28;20246;-74
2023/12/14 02:27:50;;;;;;;16.30;8.03;;;8.60;1.00;;;;;;4988287;28;20434;-76
2023/12/14 02:30:16;;;;;;;17.93;8.47;;;8.60;1.00;;;;;;4989146;28;20473;-74
2023/12/14 02:32:41;;;;;;;12.13;6.63;;;8.70;1.00;;;;;;4989444;28;20860;-76
2023/12/14 02:35:07;;;;;;;18.60;8.50;;;8.60;1.00;;;;;;4986844;28;20211;-73
2023/12/14 02:37:34;;;;;;;17.10;8.30;;;8.70;1.00;;;;;;4984160;28;20187;-78
2023/12/14 02:40:00;;;;;;;36.90;12.50;;;8.70;1.00;;;;;;4989020;28;20442;-76
2023/12/14 02:42:26;;;;;;;28.50;11.53;;;8.70;1.00;;;;;;4989159;28;20433;-76
2023/12/14 02:44:52;;;;;;;20.17;7.90;;;8.80;1.00;;;;;;4989448;28;20921;-75
2023/12/14 02:47:18;;;;;;;14.57;7.10;;;8.80;1.00;;;;;;4981595;28;20646;-75
2023/12/14 02:49:44;;;;;;;20.67;8.37;;;8.90;1.00;;;;;;4983015;28;20515;-77
2023/12/14 02:52:09;;;;;;;17.90;9.17;;;8.90;1.00;;;;;;4987735;28;20194;-72
2023/12/14 02:54:38;;;;;;;19.33;8.73;;;8.90;1.00;;;;;;4986461;28;20629;-75
2023/12/14 02:57:03;;;;;;;21.17;8.70;;;8.80;1.00;;;;;;4982706;28;20652;-74
2023/12/14 02:59:29;;;;;;;26.07;11.03;;;8.70;1.00;;;;;;4988592;28;20461;-75
2023/12/14 03:01:54;;;;;;;19.20;8.53;;;8.70;1.00;;;;;;4986024;28;20236;-75
2023/12/14 03:04:20;;;;;;;11.30;6.73;;;8.70;1.00;;;;;;4983425;28;20262;-76
2023/12/14 03:06:45;;;;;;;12.80;6.20;;;8.70;1.00;;;;;;4988796;28;20183;-76
2023/12/14 03:09:11;;;;;;;13.90;6.90;;;8.70;1.00;;;;;;4982924;28;20187;-74
2023/12/14 03:11:36;;;;;;;12.10;7.23;;;8.70;1.00;;;;;;4993071;28;20214;-77
2023/12/14 03:14:02;;;;;;;12.40;6.80;;;8.60;1.00;;;;;;4992889;28;20682;-75
2023/12/14 03:16:27;;;;;;;12.80;6.73;;;8.60;1.00;;;;;;4993342;28;20244;-75
2023/12/14 03:18:53;;;;;;;13.40;6.53;;;8.50;1.00;;;;;;4988677;28;20186;-76
2023/12/14 03:21:19;;;;;;;12.67;7.37;;;8.50;1.00;;;;;;4990401;28;20206;-75
2023/12/14 03:23:45;;;;;;;14.27;7.17;;;8.60;1.00;;;;;;4985947;28;20545;-77
2023/12/14 03:26:11;;;;;;;13.23;6.77;;;8.60;1.00;;;;;;4991853;28;20517;-76
2023/12/14 03:28:36;;;;;;;13.57;7.37;;;8.60;1.00;;;;;;4992823;28;20207;-75
2023/12/14 03:31:02;;;;;;;13.70;7.27;;;8.70;1.00;;;;;;4990972;28;20210;-75
2023/12/14 03:33:28;;;;;;;14.97;7.43;;;8.70;1.00;;;;;;4992448;28;20207;-76
2023/12/14 03:35:53;;;;;;;12.27;7.13;;;8.70;1.00;;;;;;4992628;28;20207;-75
2023/12/14 03:38:19;;;;;;;11.20;6.80;;;8.70;1.00;;;;;;4985568;28;20206;-75
2023/12/14 03:40:44;;;;;;;13.07;6.77;;;8.80;1.00;;;;;;4992787;28;20718;-75
2023/12/14 03:43:11;;;;;;;11.07;5.77;;;8.80;1.00;;;;;;4991536;28;20203;-75
2023/12/14 03:45:36;;;;;;;12.13;6.87;;;8.90;1.00;;;;;;4992435;28;20441;-75
2023/12/14 03:48:02;;;;;;;11.93;6.83;;;8.90;1.00;;;;;;4990755;28;20329;-75
2023/12/14 03:50:29;;;;;;;18.73;7.50;;;8.80;1.00;;;;;;4988586;28;20204;-74
2023/12/14 03:52:54;;;;;;;14.57;6.87;;;8.80;1.00;;;;;;4992058;28;20691;-76
2023/12/14 03:55:20;;;;;;;11.57;6.63;;;8.70;1.00;;;;;;4990857;28;20565;-74
2023/12/14 03:57:45;;;;;;;13.37;6.87;;;8.70;1.00;;;;;;4991844;28;20265;-74
2023/12/14 04:00:12;;;;;;;11.87;6.77;;;8.70;1.00;;;;;;4990947;28;20211;-73
2023/12/14 04:02:38;;;;;;;16.07;7.67;;;8.70;1.00;;;;;;4989905;28;20187;-75
2023/12/14 04:05:04;;;;;;;16.53;7.37;;;8.70;1.00;;;;;;4986965;28;20438;-74
2023/12/14 04:07:30;;;;;;;9.83;6.63;;;8.60;1.00;;;;;;4990071;28;20246;-74
2023/12/14 04:09:55;;;;;;;20.00;7.67;;;8.70;1.00;;;;;;4992129;28;20968;-75
2023/12/14 04:12:21;;;;;;;17.07;7.80;;;8.60;1.00;;;;;;4989243;28;20414;-74
2023/12/14 04:14:46;;;;;;;15.53;7.30;;;8.70;1.00;;;;;;4993499;28;20225;-74
2023/12/14 04:17:12;;;;;;;15.43;7.07;;;8.80;1.00;;;;;;4991995;28;20745;-75
2023/12/14 04:19:39;;;;;;;18.50;7.80;;;8.90;1.00;;;;;;4980763;28;20269;-75
2023/12/14 04:22:05;;;;;;;14.43;7.20;;;8.90;1.00;;;;;;4991767;28;20194;-75
2023/12/14 04:24:30;;;;;;;15.47;7.10;;;8.80;1.00;;;;;;4991434;28;20438;-75
2023/12/14 04:26:56;;;;;;;12.70;7.10;;;8.90;1.00;;;;;;4988108;28;22142;-75
2023/12/14 04:29:21;;;;;;;12.87;6.30;;;8.80;1.00;;;;;;4989763;28;20191;-75
2023/12/14 04:31:48;;;;;;;12.20;7.30;;;8.80;1.00;;;;;;4990317;28;20314;-74
2023/12/14 04:34:15;;;;;;;13.27;7.30;;;8.80;1.00;;;;;;4991785;28;20207;-74
2023/12/14 04:36:45;;;;;;;16.80;7.53;;;8.80;1.00;;;;;;4988460;28;20439;-76
2023/12/14 04:39:11;;;;;;;14.10;7.17;;;8.80;1.00;;;;;;4985933;28;20438;-76
2023/12/14 04:41:36;;;;;;;10.20;6.87;;;8.80;1.00;;;;;;4991647;28;20545;-75
2023/12/14 04:44:02;;;;;;;13.53;7.40;;;8.80;1.00;;;;;;4991313;28;20206;-75
2023/12/14 04:46:28;;;;;;;15.43;7.77;;;8.80;1.00;;;;;;4985190;28;20184;-74
2023/12/14 04:48:53;;;;;;;11.30;6.70;;;8.80;1.00;;;;;;4990052;28;20183;-74
2023/12/14 04:51:19;;;;;;;18.70;8.13;;;8.80;1.00;;;;;;4989764;28;20700;-76
2023/12/14 04:53:44;;;;;;;13.90;7.93;;;8.70;1.00;;;;;;4986419;28;20187;-75
2023/12/14 04:56:11;;;;;;;13.97;6.97;;;8.70;1.00;;;;;;4989993;28;20258;-74
2023/12/14 04:58:38;;;;;;;15.43;7.90;;;8.60;1.00;;;;;;4988528;28;20184;-74
2023/12/14 05:01:04;;;;;;;22.13;8.53;;;8.60;1.00;;;;;;4988201;28;20494;-74
2023/12/14 05:03:29;;;;;;;15.03;8.30;;;8.60;1.00;;;;;;4985696;28;20461;-75
2023/12/14 05:05:55;;;;;;;13.97;7.77;;;8.60;1.00;;;;;;4991298;28;20231;-76
2023/12/14 05:08:20;;;;;;;18.93;8.90;;;8.50;1.00;;;;;;4990730;28;20190;-75
2023/12/14 05:10:46;;;;;;;15.67;7.50;;;8.60;1.00;;;;;;5005952;28;20677;-73
2023/12/14 05:13:11;;;;;;;14.43;7.90;;;8.60;1.00;;;;;;4988792;28;20189;-76
2023/12/14 05:15:37;;;;;;;16.20;8.83;;;8.60;1.00;;;;;;4984579;28;20705;-74
2023/12/14 05:18:02;;;;;;;17.93;8.77;;;8.60;1.00;;;;;;4990132;28;20568;-75
2023/12/14 05:20:28;;;;;;;17.17;8.70;;;8.40;1.00;;;;;;4989837;28;20704;-74
2023/12/14 05:22:53;;;;;;;14.33;7.27;;;8.40;1.00;;;;;;4990054;28;20187;-75
2023/12/14 05:25:19;;;;;;;13.80;7.67;;;8.40;1.00;;;;;;4987352;28;20270;-77
2023/12/14 05:27:44;;;;;;;16.10;7.70;;;8.50;1.00;;;;;;4988731;28;20191;-75
2023/12/14 05:30:10;;;;;;;16.20;7.57;;;8.50;1.00;;;;;;4990274;28;20214;-74
2023/12/14 05:32:35;;;;;;;15.73;8.30;;;8.40;1.00;;;;;;4989703;28;20191;-74
2023/12/14 05:35:01;;;;;;;15.07;8.20;;;8.40;1.00;;;;;;4990171;28;20213;-76
2023/12/14 05:37:26;;;;;;;13.10;7.60;;;8.40;1.00;;;;;;4989523;28;20179;-74
2023/12/14 05:39:52;;;;;;;15.53;7.77;;;8.40;1.00;;;;;;4990495;28;20202;-75
2023/12/14 05:42:17;;;;;;;16.77;8.53;;;8.30;1.00;;;;;;4988134;28;20194;-76
2023/12/14 05:44:44;;;;;;;17.30;8.50;;;8.30;1.00;;;;;;4987187;28;20694;-74
2023/12/14 05:47:10;;;;;;;17.30;8.03;;;8.30;1.00;;;;;;4988653;28;20557;-75
2023/12/14 05:49:37;;;;;;;17.47;8.37;;;8.30;1.00;;;;;;4983715;28;20446;-75
2023/12/14 05:52:03;;;;;;;17.53;8.63;;;8.30;1.00;;;;;;4985179;28;20693;-74
2023/12/14 05:54:28;;;;;;;18.83;8.43;;;8.40;1.00;;;;;;4986368;28;20466;-75
2023/12/14 05:56:54;;;;;;;18.27;9.53;;;8.40;1.00;;;;;;4986649;28;20180;-74
2023/12/14 05:59:20;;;;;;;21.03;9.63;;;;;;;;;;4983624;28;20186;-74
2023/12/14 06:01:45;;;;;;;17.37;9.40;;;8.50;1.00;;;;;;4984823;28;20443;-74
2023/12/14 06:04:11;;;;;;;18.47;8.90;;;8.40;1.00;;;;;;4989027;28;20187;-76
2023/12/14 06:06:39;;;;;;;20.43;8.77;;;9.30;1.00;;;;;;4986198;28;20191;-74
2023/12/14 06:09:07;;;;;;;17.10;9.07;;;8.50;1.00;;;;;;4988543;28;20650;-74
2023/12/14 06:11:32;;;;;;;16.40;8.40;;;8.70;1.00;;;;;;4988140;28;20458;-75
2023/12/14 06:13:59;;;;;;;21.00;9.30;;;8.50;1.00;;;;;;4989448;28;20440;-75
2023/12/14 06:16:25;;;;;;;16.20;9.50;;;8.50;1.00;;;;;;4988452;28;20183;-74
2023/12/14 06:18:50;;;;;;;15.70;9.03;;;8.40;1.00;;;;;;4988890;28;20969;-75
2023/12/14 06:21:16;;;;;;;15.63;9.40;;;8.50;1.00;;;;;;4985460;28;20725;-75
2023/12/14 06:23:41;;;;;;;19.30;10.17;;;8.50;1.00;;;;;;4986381;28;20233;-76
2023/12/14 06:26:07;;;;;;;18.40;9.20;;;8.50;1.00;;;;;;4987995;28;20701;-75
2023/12/14 06:28:32;;;;;;;20.27;9.57;;;8.50;1.00;;;;;;4986019;28;20265;-75
2023/12/14 06:30:58;;;;;;;20.70;9.57;;;8.50;1.00;;;;;;4989584;28;20215;-76
2023/12/14 06:33:23;;;;;;;20.33;9.70;;;8.50;1.00;;;;;;4989339;28;20270;-74
2023/12/14 06:35:49;;;;;;;22.23;10.73;;;8.50;1.00;;;;;;4991317;28;20214;-76
2023/12/14 06:38:15;;;;;;;18.30;10.33;;;8.40;1.00;;;;;;4986870;28;20183;-75
2023/12/14 06:40:41;;;;;;;25.43;10.57;;;8.40;1.00;;;;;;4988806;28;20238;-74
2023/12/14 06:43:06;;;;;;;24.40;12.20;;;8.30;1.00;;;;;;4988607;28;20280;-76
2023/12/14 06:45:32;;;;;;;20.67;11.23;;;8.30;1.00;;;;;;4987421;28;20543;-75
2023/12/14 06:47:57;;;;;;;24.27;11.60;;;8.30;1.00;;;;;;4989065;28;20226;-75
2023/12/14 06:50:23;;;;;;;25.17;11.70;;;8.30;1.00;;;;;;4989383;28;20207;-76
2023/12/14 06:52:48;;;;;;;24.27;10.87;;;8.30;1.00;;;;;;4985905;28;20198;-76
2023/12/14 06:55:14;;;;;;;22.17;10.70;;;8.30;1.00;;;;;;4989577;28;20674;-75
2023/12/14 06:57:43;;;;;;;21.33;11.17;;;8.30;1.00;;;;;;4989165;28;20198;-75
2023/12/14 07:00:09;;;;;;;22.70;10.97;;;8.20;1.00;;;;;;4988694;28;20540;-76
2023/12/14 07:02:35;;;;;;;24.93;12.20;;;8.30;1.00;;;;;;4988796;28;20426;-74
2023/12/14 07:05:00;;;;;;;24.73;11.10;;;8.20;1.00;;;;;;4985896;28;20433;-74
2023/12/14 07:07:26;;;;;;;22.70;10.30;;;8.10;1.00;;;;;;4987899;28;20183;-75
2023/12/14 07:09:51;;;;;;;21.20;10.40;;;8.10;1.00;;;;;;4988974;28;20206;-75
2023/12/14 07:12:17;;;;;;;23.63;10.30;;;8.10;1.00;;;;;;4985887;28;20190;-75
2023/12/14 07:14:43;;;;;;;22.37;10.30;;;8.10;1.00;;;;;;4986694;28;20480;-76
2023/12/14 07:17:08;;;;;;;20.73;10.33;;;8.10;1.00;;;;;;4987100;28;20454;-74
2023/12/14 07:19:35;;;;;;;20.70;10.27;;;8.10;1.00;;;;;;4986277;28;20190;-73
2023/12/14 07:22:01;;;;;;;25.50;8.90;;;8.20;1.00;;;;;;4983811;28;20574;-75
2023/12/14 07:24:26;;;;;;;20.30;9.10;;;8.10;1.00;;;;;;4987694;28;20425;-75
2023/12/14 07:26:52;;;;;;;24.10;10.13;;;8.10;1.00;;;;;;4986775;28;20187;-75
2023/12/14 07:29:17;;;;;;;17.97;8.90;;;8.10;1.00;;;;;;4986984;28;20269;-76
2023/12/14 07:31:43;;;;;;;20.00;9.43;;;8.10;1.00;;;;;;4988466;28;20217;-75
2023/12/14 07:34:08;;;;;;;17.00;9.10;;;8.10;1.00;;;;;;4987123;28;20187;-75
2023/12/14 07:36:34;;;;;;;17.00;8.67;;;8.20;1.00;;;;;;4988471;28;20211;-74
2023/12/14 07:39:01;;;;;;;17.90;8.00;;;8.20;1.00;;;;;;4986175;28;20204;-75
2023/12/14 07:41:29;;;;;;;17.77;8.30;;;8.20;1.00;;;;;;4988739;28;20206;-76
2023/12/14 07:43:55;;;;;;;18.00;7.40;;;8.10;1.00;;;;;;4977670;28;20439;-74
2023/12/14 07:46:21;;;;;;;17.23;8.60;;;8.20;1.00;;;;;;4982837;28;20438;-74
2023/12/14 07:48:47;;;;;;;19.77;8.57;;;8.30;1.00;;;;;;4983749;28;20445;-73
2023/12/14 07:51:12;;;;;;;23.67;9.03;;;8.20;1.00;;;;;;4986073;28;20610;-72
2023/12/14 07:53:38;;;;;;;22.87;9.40;;;8.20;1.00;;;;;;4988922;28;20558;-73
2023/12/14 07:56:04;;;;;;;19.50;9.03;;;8.10;1.00;;;;;;4990887;28;20553;-73
2023/12/14 07:58:30;;;;;;;16.77;8.57;;;8.20;1.00;;;;;;4992234;28;20661;-73
2023/12/14 08:00:56;;;;;;;13.87;8.27;;;8.20;1.00;;;;;;4992929;28;20442;-71
2023/12/14 08:03:21;;;;;;;18.60;8.80;;;8.30;1.00;;;;;;4986907;28;20634;-74
2023/12/14 08:05:47;;;;;;;21.43;11.30;;;8.30;1.00;;;;;;4991395;28;20325;-73
2023/12/14 08:08:12;;;;;;;27.07;12.30;;;8.30;1.00;;;;;;4990302;28;20199;-74
2023/12/14 08:10:38;;;;;;;27.77;13.00;;;8.30;1.00;;;;;;4993293;28;20207;-72
2023/12/14 08:13:04;;;;;;;22.30;11.70;;;9.00;1.00;;;;;;4987441;28;20239;-73
2023/12/14 08:15:29;;;;;;;22.90;11.77;;;8.20;1.00;;;;;;4985586;28;20208;-74
2023/12/14 08:17:55;;;;;;;21.47;11.40;;;8.40;1.00;;;;;;4986789;28;20347;-74
2023/12/14 08:20:21;;;;;;;19.63;10.03;;;8.40;1.00;;;;;;4990280;28;21026;-75
2023/12/14 08:22:46;;;;;;;20.87;10.20;;;8.50;1.00;;;;;;4987931;28;20570;-74
2023/12/14 08:25:14;;;;;;;19.13;9.97;;;8.60;1.00;;;;;;4985429;28;20233;-73
2023/12/14 08:27:40;;;;;;;24.20;11.63;;;8.60;1.00;;;;;;4992026;28;20189;-74
2023/12/14 08:30:06;;;;;;;29.53;11.50;;;8.60;1.00;;;;;;4986908;28;20557;-76
2023/12/14 08:32:31;;;;;;;24.03;10.97;;;8.60;1.00;;;;;;4992446;28;20190;-73
2023/12/14 08:34:57;;;;;;;21.40;10.80;;;8.60;1.00;;;;;;4989473;28;20493;-73
2023/12/14 08:37:22;;;;;;;23.03;11.30;;;8.70;1.00;;;;;;4990949;28;20222;-73
2023/12/14 08:39:48;;;;;;;22.57;10.90;;;8.70;1.00;;;;;;4990608;28;20665;-74
2023/12/14 08:42:13;;;;;;;22.30;11.23;;;8.70;1.00;;;;;;4989486;28;20203;-74
2023/12/14 08:44:42;;;;;;;17.57;9.40;;;8.60;1.00;;;;;;4984785;28;20195;-73
2023/12/14 08:47:08;;;;;;;21.57;10.80;;;8.50;1.00;;;;;;4984113;28;20221;-74
2023/12/14 08:49:34;;;;;;;28.43;12.30;;;8.60;1.00;;;;;;4982025;28;20436;-74
2023/12/14 08:52:00;;;;;;;27.47;13.40;;;8.60;1.00;;;;;;4990958;28;20434;-71
2023/12/14 08:54:25;;;;;;;29.57;13.30;;;8.60;1.00;;;;;;4992012;28;20219;-71
2023/12/14 08:56:52;;;;;;;24.87;13.57;;;8.70;1.00;;;;;;4991367;28;20182;-71
2023/12/14 08:59:19;;;;;;;26.97;12.97;;;8.80;1.00;;;;;;4990364;28;20241;-71
2023/12/14 09:01:45;;;;;;;22.07;11.07;;;8.80;1.00;;;;;;4989921;28;20450;-71
2023/12/14 09:04:11;;;;;;;21.13;11.37;;;8.80;1.00;;;;;;4986859;28;20798;-73
2023/12/14 09:06:36;;;;;;;19.87;9.23;;;8.70;1.00;;;;;;4986084;28;20218;-74
2023/12/14 09:09:03;;;;;;;21.90;10.40;;;8.70;1.00;;;;;;5005303;28;20190;-72
2023/12/14 09:11:29;;;;;;;20.57;11.23;;;8.80;1.00;;;;;;4990817;28;20672;-71
2023/12/14 09:13:55;;;;;;;25.30;10.50;;;8.80;1.00;;;;;;4990238;28;20514;-72
2023/12/14 09:16:20;;;;;;;20.70;11.50;;;8.80;1.00;;;;;;4990225;28;20233;-71
2023/12/14 09:18:46;;;;;;;20.70;11.27;;;8.80;1.00;;;;;;4988920;28;20450;-73
2023/12/14 09:21:12;;;;;;;24.07;10.90;;;8.80;1.00;;;;;;4988080;28;20211;-74
2023/12/14 09:23:37;;;;;;;20.93;11.73;;;8.80;1.00;;;;;;4988112;28;20189;-73
2023/12/14 09:26:03;;;;;;;19.07;10.80;;;8.80;1.00;;;;;;4988505;28;20641;-73
2023/12/14 09:28:28;;;;;;;20.40;10.93;;;8.90;1.00;;;;;;4990895;28;20260;-73
2023/12/14 09:30:54;;;;;;;21.10;11.10;;;8.90;1.00;;;;;;4990178;28;20587;-73
2023/12/14 09:33:19;;;;;;;18.50;9.80;;;8.90;1.00;;;;;;4991212;28;20203;-73
2023/12/14 09:35:45;;;;;;;19.43;10.20;;;9.00;1.00;;;;;;4988786;28;20214;-72
2023/12/14 09:38:13;;;;;;;19.53;9.37;;;9.00;1.00;;;;;;4990964;28;20604;-72
2023/12/14 09:40:39;;;;;;;15.23;8.90;;;9.00;1.00;;;;;;4991247;28;20203;-72
2023/12/14 09:43:05;;;;;;;14.37;8.70;;;9.00;1.00;;;;;;4989778;28;20588;-71
2023/12/14 09:45:31;;;;;;;16.77;9.23;;;9.10;1.00;;;;;;4990483;28;20332;-73
2023/12/14 09:48:00;;;;;;;19.57;9.80;;;9.10;1.00;;;;;;4989952;28;20198;-75
2023/12/14 09:50:26;;;;;;;16.20;8.97;;;9.20;1.00;;;;;;4982628;28;20202;-73
2023/12/14 09:52:52;;;;;;;21.33;9.30;;;9.20;1.00;;;;;;4986669;28;20430;-73
2023/12/14 09:55:17;;;;;;;28.20;9.60;;;9.20;1.00;;;;;;4985441;28;20209;-73
2023/12/14 09:57:43;;;;;;;19.20;10.13;;;9.30;1.00;;;;;;4988009;28;20218;-73
2023/12/14 10:00:13;;;;;;;22.90;10.87;;;9.30;1.00;;;;;;4990094;28;20203;-71
2023/12/14 10:02:39;;;;;;;19.20;8.90;;;9.40;1.00;;;;;;4987115;28;20175;-73
2023/12/14 10:05:10;;;;;;;18.93;9.50;;;9.40;1.00;;;;;;4988923;28;20428;-72
2023/12/14 10:07:42;;;;;;;16.77;9.60;;;9.40;1.00;;;;;;4977399;28;20271;-72
2023/12/14 10:10:13;;;;;;;15.27;7.20;;;9.50;1.00;;;;;;4987626;28;20481;-73
2023/12/14 10:12:55;;;;;;;22.17;8.83;;;9.60;1.00;;;;;;4990503;28;20431;-73
2023/12/14 10:15:23;;;;;;;16.57;9.13;;;9.60;1.00;;;;;;4988075;28;20494;-73
2023/12/14 10:17:54;;;;;;;17.20;9.37;;;9.60;1.00;;;;;;4987325;28;20442;-72
2023/12/14 10:20:21;;;;;;;17.40;8.10;;;9.70;1.00;;;;;;4989051;28;20476;-73
2023/12/14 10:22:48;;;;;;;15.47;8.83;;;9.70;1.00;;;;;;4990326;28;20474;-72
2023/12/14 10:25:14;;;;;;;17.13;9.07;;;9.70;1.00;;;;;;4984972;28;20461;-73
2023/12/14 10:27:40;;;;;;;20.70;8.97;;;9.70;1.00;;;;;;4988264;28;21064;-72
2023/12/14 10:30:08;;;;;;;22.20;9.50;;;9.60;1.00;;;;;;4988525;28;20211;-72
2023/12/14 10:32:34;;;;;;;18.63;9.23;;;9.60;1.00;;;;;;4986254;28;20175;-72
2023/12/14 10:35:00;;;;;;;15.47;8.30;;;9.70;1.00;;;;;;4984115;28;20489;-72
2023/12/14 10:37:26;;;;;;;18.90;9.20;;;9.70;1.00;;;;;;4988911;28;20467;-72
2023/12/14 10:39:53;;;;;;;13.07;7.50;;;9.70;1.00;;;;;;4987157;28;20474;-71
2023/12/14 10:42:21;;;;;;;21.63;8.90;;;9.70;1.00;;;;;;4988341;28;20206;-71
2023/12/14 10:44:51;;;;;;;16.97;10.00;;;9.70;1.00;;;;;;4988889;28;21024;-72
2023/12/14 10:47:18;;;;;;;17.00;9.60;;;9.70;1.00;;;;;;4987734;28;20665;-72
2023/12/14 10:49:48;;;;;;;19.00;9.63;;;9.70;1.00;;;;;;4988618;28;20449;-75
2023/12/14 10:52:14;;;;;;;16.03;9.20;;;9.60;1.00;;;;;;4988781;28;20752;-72
2023/12/14 10:54:41;;;;;;;16.50;9.53;;;9.60;1.00;;;;;;4988494;28;20581;-72
2023/12/14 10:57:08;;;;;;;16.00;8.47;;;9.60;1.00;;;;;;4987702;28;20254;-72
2023/12/14 10:59:34;;;;;;;17.57;8.60;;;9.70;1.00;;;;;;4987304;28;20953;-74
2023/12/14 11:02:09;;;;;;;18.10;8.90;;;9.70;1.00;;;;;;4988570;28;20933;-74
2023/12/14 11:05:05;;;;;;;15.53;8.57;;;9.70;1.00;;;;;;4984373;28;20426;-74
2023/12/14 11:07:48;;;;;;;14.63;7.97;;;9.80;1.00;;;;;;4985142;28;20419;-73
2023/12/14 11:10:14;;;;;;;11.47;7.20;;;9.90;1.00;;;;;;4988860;28;20504;-73
2023/12/14 11:13:11;;;;;;;16.30;9.27;;;10.00;1.00;;;;;;4989124;28;20426;-74
2023/12/14 11:15:37;;;;;;;13.73;8.33;;;9.90;1.00;;;;;;4976315;28;20473;-74
2023/12/14 11:18:12;;;;;;;18.50;8.90;;;10.00;1.00;;;;;;4980248;28;20415;-73
2023/12/14 11:20:47;;;;;;;18.00;8.73;;;9.90;1.00;;;;;;4988630;28;20455;-74
2023/12/14 11:23:14;;;;;;;14.13;8.23;;;9.80;1.00;;;;;;4986119;28;20837;-74
2023/12/14 11:25:41;;;;;;;17.30;8.90;;;10.00;1.00;;;;;;4988963;28;20488;-74
2023/12/14 11:28:07;;;;;;;18.70;9.27;;;10.00;1.00;;;;;;4988508;28;20485;-73
2023/12/14 11:30:33;;;;;;;20.13;7.47;;;10.20;1.00;;;;;;4991963;28;20818;-75
2023/12/14 11:32:59;;;;;;;17.20;8.90;;;10.30;1.00;;;;;;4992358;28;20441;-72
2023/12/14 11:35:24;;;;;;;17.43;8.20;;;10.40;1.00;;;;;;4987670;28;20211;-73
2023/12/14 11:37:50;;;;;;;18.10;8.10;;;10.60;1.00;;;;;;4989828;28;20562;-73
2023/12/14 11:40:22;;;;;;;14.10;7.40;;;10.80;1.00;;;;;;4990589;28;20593;-72
2023/12/14 11:43:00;;;;;;;10.87;6.90;;;10.80;1.00;;;;;;4988201;28;20662;-72
2023/12/14 11:45:26;;;;;;;12.00;6.50;;;11.00;1.00;;;;;;4982498;28;20438;-72
2023/12/14 11:47:52;;;;;;;16.80;7.27;;;11.30;1.00;;;;;;4991613;28;20808;-73
2023/12/14 11:50:18;;;;;;;12.93;7.10;;;11.50;1.00;;;;;;4991343;28;20445;-73
2023/12/14 11:52:44;;;;;;;14.07;7.77;;;11.60;1.00;;;;;;4985952;28;20445;-72
2023/12/14 11:55:14;;;;;;;11.03;6.30;;;11.80;1.00;;;;;;4988465;28;20218;-73
2023/12/14 11:57:45;;;;;;;13.13;7.20;;;11.70;1.00;;;;;;4992160;28;20433;-73
2023/12/14 12:00:11;;;;;;;18.20;7.60;;;11.40;1.00;;;;;;4992118;28;20450;-73
2023/12/14 12:02:37;;;;;;;11.77;6.77;;;11.20;1.00;;;;;;4990168;28;20426;-75
2023/12/14 12:05:03;;;;;;;14.60;7.30;;;11.00;1.00;;;;;;4983775;28;20442;-71
2023/12/14 12:07:28;;;;;;;11.50;6.90;;;10.90;1.00;;;;;;4990922;28;20573;-73
2023/12/14 12:09:54;;;;;;;15.40;7.20;;;10.60;1.00;;;;;;4992842;28;20211;-73
2023/12/14 12:12:21;;;;;;;16.80;6.80;;;10.60;1.00;;;;;;4991862;28;20198;-73
2023/12/14 12:14:49;;;;;;;14.13;7.30;;;10.40;1.00;;;;;;4992188;28;20222;-73
2023/12/14 12:17:15;;;;;;;15.67;7.43;;;10.30;1.00;;;;;;4988570;28;20430;-73
2023/12/14 12:19:42;;;;;;;17.13;7.77;;;10.10;1.00;;;;;;4992462;28;20481;-73
2023/12/14 12:22:08;;;;;;;11.50;6.63;;;10.10;1.00;;;;;;4989654;28;20461;-74
2023/12/14 12:24:34;;;;;;;16.97;7.63;;;10.00;1.00;;;;;;4992920;28;20933;-73
2023/12/14 12:26:59;;;;;;;13.10;7.23;;;10.00;1.00;;;;;;4994396;28;20198;-74
2023/12/14 12:29:25;;;;;;;15.77;8.60;;;9.90;1.00;;;;;;4992283;28;20427;-73
2023/12/14 12:31:51;;;;;;;15.57;7.10;;;9.90;1.00;;;;;;4993050;28;20187;-73
2023/12/14 12:34:17;;;;;;;15.17;7.37;;;9.90;1.00;;;;;;4992084;28;20580;-73
2023/12/14 12:36:43;;;;;;;14.07;7.00;;;9.90;1.00;;;;;;4985116;28;20424;-74
2023/12/14 12:39:08;;;;;;;13.50;7.30;;;9.90;1.00;;;;;;4986192;28;20690;-73
2023/12/14 12:41:34;;;;;;;13.90;7.80;;;10.00;1.00;;;;;;4991908;28;20222;-72
2023/12/14 12:44:05;;;;;;;14.20;8.20;;;11.10;1.00;;;;;;4991772;28;20267;-73
2023/12/14 12:46:32;;;;;;;20.80;8.30;;;11.70;1.00;;;;;;4990710;28;20270;-73
2023/12/14 12:48:58;;;;;;;18.57;8.03;;;9.90;1.00;;;;;;4989526;28;20988;-73
2023/12/14 12:51:25;;;;;;;12.70;7.47;;;9.90;1.00;;;;;;4989571;28;20438;-72